sensor_id;sensor_type;location;lat;lon;timestamp;temperature;humidity
25302;DHT22;13243;50.888;4.724;2022-10-16T00:03:25;14.30;99.90
25302;DHT22;13243;50.888;4.724;2022-10-16T00:08:39;14.40;99.90
25302;DHT22;13243;50.888;4.724;2022-10-16T00:13:43;14.40;99.90
25302;DHT22;13243;50.888;4.724;2022-10-16T00:18:45;14.40;99.90
25302;DHT22;13243;50.888;4.724;2022-10-16T00:23:50;14.40;99.90
25302;DHT22;13243;50.888;4.724;2022-10-16T00:28:52;14.40;99.90
25302;DHT22;13243;50.888;4.724;2022-10-16T00:33:54;14.40;99.90
25302;DHT22;13243;50.888;4.724;2022-10-16T00:38:57;14.30;99.90
25302;DHT22;13243;50.888;4.724;2022-10-16T00:44:03;14.30;99.90
25302;DHT22;13243;50.888;4.724;2022-10-16T00:49:07;14.30;99.90
25302;DHT22;13243;50.888;4.724;2022-10-16T00:54:13;14.30;99.90
25302;DHT22;13243;50.888;4.724;2022-10-16T00:59:40;14.20;99.90
25302;DHT22;13243;50.888;4.724;2022-10-16T01:04:51;14.10;99.90
25302;DHT22;13243;50.888;4.724;2022-10-16T01:11:05;14.10;99.90
25302;DHT22;13243;50.888;4.724;2022-10-16T01:15:48;14.10;99.90
25302;DHT22;13243;50.888;4.724;2022-10-16T01:21:02;14.10;99.90
25302;DHT22;13243;50.888;4.724;2022-10-16T01:31:11;14.10;99.90
25302;DHT22;13243;50.888;4.724;2022-10-16T01:36:21;14.10;99.90
25302;DHT22;13243;50.888;4.724;2022-10-16T01:41:35;14.00;99.90
25302;DHT22;13243;50.888;4.724;2022-10-16T01:46:43;14.00;99.90
25302;DHT22;13243;50.888;4.724;2022-10-16T01:51:47;14.00;99.90
25302;DHT22;13243;50.888;4.724;2022-10-16T01:56:50;14.00;99.90
25302;DHT22;13243;50.888;4.724;2022-10-16T02:01:56;14.00;99.90
25302;DHT22;13243;50.888;4.724;2022-10-16T02:07:00;13.90;99.90
25302;DHT22;13243;50.888;4.724;2022-10-16T02:12:28;14.00;99.90
25302;DHT22;13243;50.888;4.724;2022-10-16T02:17:32;14.00;99.90
25302;DHT22;13243;50.888;4.724;2022-10-16T02:22:36;14.00;99.90
25302;DHT22;13243;50.888;4.724;2022-10-16T02:27:47;13.90;99.90
25302;DHT22;13243;50.888;4.724;2022-10-16T02:32:52;14.00;99.90
25302;DHT22;13243;50.888;4.724;2022-10-16T02:37:55;14.00;99.90
25302;DHT22;13243;50.888;4.724;2022-10-16T02:42:57;14.10;99.90
25302;DHT22;13243;50.888;4.724;2022-10-16T02:47:59;14.00;99.90
25302;DHT22;13243;50.888;4.724;2022-10-16T02:53:01;14.00;99.90
25302;DHT22;13243;50.888;4.724;2022-10-16T02:58:03;13.90;99.90
25302;DHT22;13243;50.888;4.724;2022-10-16T03:03:04;13.90;99.90
25302;DHT22;13243;50.888;4.724;2022-10-16T03:08:06;13.90;99.90
25302;DHT22;13243;50.888;4.724;2022-10-16T03:13:08;13.90;99.90
25302;DHT22;13243;50.888;4.724;2022-10-16T03:18:10;13.90;99.90
25302;DHT22;13243;50.888;4.724;2022-10-16T03:23:12;13.90;99.90
25302;DHT22;13243;50.888;4.724;2022-10-16T03:28:14;13.90;99.90
25302;DHT22;13243;50.888;4.724;2022-10-16T03:33:16;13.90;99.90
25302;DHT22;13243;50.888;4.724;2022-10-16T03:38:17;13.90;99.90
25302;DHT22;13243;50.888;4.724;2022-10-16T03:43:19;13.80;99.90
25302;DHT22;13243;50.888;4.724;2022-10-16T03:48:21;13.90;99.90
25302;DHT22;13243;50.888;4.724;2022-10-16T03:53:23;13.80;99.90
25302;DHT22;13243;50.888;4.724;2022-10-16T03:58:25;13.70;99.90
25302;DHT22;13243;50.888;4.724;2022-10-16T04:03:27;13.80;99.90
25302;DHT22;13243;50.888;4.724;2022-10-16T04:08:29;13.80;99.90
25302;DHT22;13243;50.888;4.724;2022-10-16T04:13:31;13.70;99.90
25302;DHT22;13243;50.888;4.724;2022-10-16T04:18:33;13.80;99.90
25302;DHT22;13243;50.888;4.724;2022-10-16T04:23:34;13.70;99.90
25302;DHT22;13243;50.888;4.724;2022-10-16T04:28:36;13.70;99.90
25302;DHT22;13243;50.888;4.724;2022-10-16T04:33:38;13.70;99.90
25302;DHT22;13243;50.888;4.724;2022-10-16T04:38:40;13.70;99.90
25302;DHT22;13243;50.888;4.724;2022-10-16T04:43:42;13.80;99.90
25302;DHT22;13243;50.888;4.724;2022-10-16T04:48:44;13.70;99.90
25302;DHT22;13243;50.888;4.724;2022-10-16T04:53:46;13.70;99.90
25302;DHT22;13243;50.888;4.724;2022-10-16T04:58:48;13.80;99.90
25302;DHT22;13243;50.888;4.724;2022-10-16T05:03:50;13.70;99.90
25302;DHT22;13243;50.888;4.724;2022-10-16T05:08:55;13.70;99.90
25302;DHT22;13243;50.888;4.724;2022-10-16T05:13:56;13.70;99.90
25302;DHT22;13243;50.888;4.724;2022-10-16T05:18:58;13.70;99.90
25302;DHT22;13243;50.888;4.724;2022-10-16T05:24:20;13.60;99.90
25302;DHT22;13243;50.888;4.724;2022-10-16T05:29:22;13.60;99.90
25302;DHT22;13243;50.888;4.724;2022-10-16T05:34:23;13.60;99.90
25302;DHT22;13243;50.888;4.724;2022-10-16T05:39:25;13.50;99.90
25302;DHT22;13243;50.888;4.724;2022-10-16T05:44:27;13.50;99.90
25302;DHT22;13243;50.888;4.724;2022-10-16T05:49:29;13.40;99.90
25302;DHT22;13243;50.888;4.724;2022-10-16T05:54:31;13.40;99.90
25302;DHT22;13243;50.888;4.724;2022-10-16T05:59:33;13.40;99.90
25302;DHT22;13243;50.888;4.724;2022-10-16T06:04:34;13.40;99.90
25302;DHT22;13243;50.888;4.724;2022-10-16T06:09:36;13.40;99.90
25302;DHT22;13243;50.888;4.724;2022-10-16T06:14:38;13.50;99.90
25302;DHT22;13243;50.888;4.724;2022-10-16T06:19:40;13.40;99.90
25302;DHT22;13243;50.888;4.724;2022-10-16T06:24:41;13.40;99.90
25302;DHT22;13243;50.888;4.724;2022-10-16T06:29:43;13.40;99.90
25302;DHT22;13243;50.888;4.724;2022-10-16T06:34:46;13.40;99.90
25302;DHT22;13243;50.888;4.724;2022-10-16T06:39:48;13.50;99.90
25302;DHT22;13243;50.888;4.724;2022-10-16T06:44:50;13.30;99.90
25302;DHT22;13243;50.888;4.724;2022-10-16T06:49:51;13.50;99.90
25302;DHT22;13243;50.888;4.724;2022-10-16T06:54:55;13.50;99.90
25302;DHT22;13243;50.888;4.724;2022-10-16T06:59:56;13.50;99.90
25302;DHT22;13243;50.888;4.724;2022-10-16T07:04:58;13.60;99.90
25302;DHT22;13243;50.888;4.724;2022-10-16T07:10:00;13.70;99.90
25302;DHT22;13243;50.888;4.724;2022-10-16T07:15:02;13.80;99.90
25302;DHT22;13243;50.888;4.724;2022-10-16T07:20:04;14.00;99.90
25302;DHT22;13243;50.888;4.724;2022-10-16T07:25:06;14.10;99.90
25302;DHT22;13243;50.888;4.724;2022-10-16T07:30:08;14.20;99.90
25302;DHT22;13243;50.888;4.724;2022-10-16T07:35:10;14.30;99.90
25302;DHT22;13243;50.888;4.724;2022-10-16T07:40:12;14.30;99.90
25302;DHT22;13243;50.888;4.724;2022-10-16T07:45:14;14.40;99.90
25302;DHT22;13243;50.888;4.724;2022-10-16T07:50:16;14.40;99.90
25302;DHT22;13243;50.888;4.724;2022-10-16T07:55:17;14.60;99.90
25302;DHT22;13243;50.888;4.724;2022-10-16T08:00:19;14.70;99.90
25302;DHT22;13243;50.888;4.724;2022-10-16T08:05:21;14.70;99.90
25302;DHT22;13243;50.888;4.724;2022-10-16T08:10:25;14.80;99.90
25302;DHT22;13243;50.888;4.724;2022-10-16T08:15:27;14.80;99.90
25302;DHT22;13243;50.888;4.724;2022-10-16T08:20:30;14.90;99.90
25302;DHT22;13243;50.888;4.724;2022-10-16T08:25:35;15.00;99.90
25302;DHT22;13243;50.888;4.724;2022-10-16T08:30:38;15.10;99.90
25302;DHT22;13243;50.888;4.724;2022-10-16T08:35:40;15.30;99.90
25302;DHT22;13243;50.888;4.724;2022-10-16T08:40:42;15.40;99.90
25302;DHT22;13243;50.888;4.724;2022-10-16T08:51:04;15.60;99.90
25302;DHT22;13243;50.888;4.724;2022-10-16T08:56:07;15.80;99.90
25302;DHT22;13243;50.888;4.724;2022-10-16T09:01:14;15.80;99.90
25302;DHT22;13243;50.888;4.724;2022-10-16T09:12:08;16.20;99.90
25302;DHT22;13243;50.888;4.724;2022-10-16T09:22:31;16.40;99.90
25302;DHT22;13243;50.888;4.724;2022-10-16T09:27:33;16.60;99.90
25302;DHT22;13243;50.888;4.724;2022-10-16T09:32:35;16.60;99.90
25302;DHT22;13243;50.888;4.724;2022-10-16T09:37:40;16.80;99.90
25302;DHT22;13243;50.888;4.724;2022-10-16T09:42:42;16.90;99.90
25302;DHT22;13243;50.888;4.724;2022-10-16T09:47:44;16.90;99.90
25302;DHT22;13243;50.888;4.724;2022-10-16T09:52:46;17.00;99.90
25302;DHT22;13243;50.888;4.724;2022-10-16T09:57:52;17.20;99.90
25302;DHT22;13243;50.888;4.724;2022-10-16T10:02:55;17.20;99.90
25302;DHT22;13243;50.888;4.724;2022-10-16T10:07:58;17.40;99.90
25302;DHT22;13243;50.888;4.724;2022-10-16T10:13:01;17.40;99.90
25302;DHT22;13243;50.888;4.724;2022-10-16T10:18:16;17.50;99.90
25302;DHT22;13243;50.888;4.724;2022-10-16T10:23:22;17.70;99.90
25302;DHT22;13243;50.888;4.724;2022-10-16T10:28:43;17.60;99.90
25302;DHT22;13243;50.888;4.724;2022-10-16T10:39:41;17.90;99.90
25302;DHT22;13243;50.888;4.724;2022-10-16T10:50:41;18.30;99.90
25302;DHT22;13243;50.888;4.724;2022-10-16T10:55:45;18.00;99.90
25302;DHT22;13243;50.888;4.724;2022-10-16T11:06:15;18.50;99.90
25302;DHT22;13243;50.888;4.724;2022-10-16T11:11:38;18.40;99.90
25302;DHT22;13243;50.888;4.724;2022-10-16T11:16:53;18.10;99.90
25302;DHT22;13243;50.888;4.724;2022-10-16T11:27:39;17.50;99.90
25302;DHT22;13243;50.888;4.724;2022-10-16T11:33:32;17.40;99.90
25302;DHT22;13243;50.888;4.724;2022-10-16T11:38:30;17.90;99.90
25302;DHT22;13243;50.888;4.724;2022-10-16T11:44:09;18.40;99.90
25302;DHT22;13243;50.888;4.724;2022-10-16T11:49:16;18.30;99.90
25302;DHT22;13243;50.888;4.724;2022-10-16T11:54:38;18.10;99.90
25302;DHT22;13243;50.888;4.724;2022-10-16T12:10:25;18.10;99.90
25302;DHT22;13243;50.888;4.724;2022-10-16T12:15:31;18.10;99.90
25302;DHT22;13243;50.888;4.724;2022-10-16T12:20:58;18.20;99.90
25302;DHT22;13243;50.888;4.724;2022-10-16T12:26:01;18.20;99.90
25302;DHT22;13243;50.888;4.724;2022-10-16T12:31:06;18.40;99.90
25302;DHT22;13243;50.888;4.724;2022-10-16T12:36:16;18.50;99.90
25302;DHT22;13243;50.888;4.724;2022-10-16T12:51:36;18.50;99.90
25302;DHT22;13243;50.888;4.724;2022-10-16T13:07:41;18.40;99.90
25302;DHT22;13243;50.888;4.724;2022-10-16T13:23:49;18.40;99.90
25302;DHT22;13243;50.888;4.724;2022-10-16T13:28:53;18.70;99.90
25302;DHT22;13243;50.888;4.724;2022-10-16T13:33:59;18.90;99.90
25302;DHT22;13243;50.888;4.724;2022-10-16T13:39:23;18.70;99.90
25302;DHT22;13243;50.888;4.724;2022-10-16T13:44:26;18.60;99.90
25302;DHT22;13243;50.888;4.724;2022-10-16T13:49:28;18.70;99.90
25302;DHT22;13243;50.888;4.724;2022-10-16T13:54:30;19.30;99.90
25302;DHT22;13243;50.888;4.724;2022-10-16T13:59:34;19.10;99.90
25302;DHT22;13243;50.888;4.724;2022-10-16T14:04:38;18.90;99.90
25302;DHT22;13243;50.888;4.724;2022-10-16T14:09:42;18.80;99.90
25302;DHT22;13243;50.888;4.724;2022-10-16T14:14:52;18.80;99.90
25302;DHT22;13243;50.888;4.724;2022-10-16T14:19:57;18.70;99.90
25302;DHT22;13243;50.888;4.724;2022-10-16T14:25:26;18.60;99.90
25302;DHT22;13243;50.888;4.724;2022-10-16T14:30:29;18.50;99.90
25302;DHT22;13243;50.888;4.724;2022-10-16T14:35:39;18.50;99.90
25302;DHT22;13243;50.888;4.724;2022-10-16T14:40:47;18.40;99.90
25302;DHT22;13243;50.888;4.724;2022-10-16T14:45:55;18.50;99.90
25302;DHT22;13243;50.888;4.724;2022-10-16T14:50:57;18.70;99.90
25302;DHT22;13243;50.888;4.724;2022-10-16T14:56:07;18.90;99.90
25302;DHT22;13243;50.888;4.724;2022-10-16T15:01:10;18.90;99.90
25302;DHT22;13243;50.888;4.724;2022-10-16T15:06:16;18.90;99.90
25302;DHT22;13243;50.888;4.724;2022-10-16T15:11:19;18.70;99.90
25302;DHT22;13243;50.888;4.724;2022-10-16T15:16:21;18.60;99.90
25302;DHT22;13243;50.888;4.724;2022-10-16T15:21:29;18.40;99.90
25302;DHT22;13243;50.888;4.724;2022-10-16T15:26:31;18.40;99.90
25302;DHT22;13243;50.888;4.724;2022-10-16T15:31:33;18.40;99.90
25302;DHT22;13243;50.888;4.724;2022-10-16T15:36:37;18.40;99.90
25302;DHT22;13243;50.888;4.724;2022-10-16T15:41:39;18.30;99.90
25302;DHT22;13243;50.888;4.724;2022-10-16T15:46:46;18.10;99.90
25302;DHT22;13243;50.888;4.724;2022-10-16T15:51:48;17.90;99.90
25302;DHT22;13243;50.888;4.724;2022-10-16T15:56:50;17.80;99.90
25302;DHT22;13243;50.888;4.724;2022-10-16T16:01:52;17.80;99.90
25302;DHT22;13243;50.888;4.724;2022-10-16T16:06:54;17.60;99.90
25302;DHT22;13243;50.888;4.724;2022-10-16T16:11:56;17.60;99.90
25302;DHT22;13243;50.888;4.724;2022-10-16T16:16:59;17.50;99.90
25302;DHT22;13243;50.888;4.724;2022-10-16T16:22:01;17.50;99.90
25302;DHT22;13243;50.888;4.724;2022-10-16T16:27:03;17.30;99.90
25302;DHT22;13243;50.888;4.724;2022-10-16T16:32:06;17.20;99.90
25302;DHT22;13243;50.888;4.724;2022-10-16T16:37:08;17.20;99.90
25302;DHT22;13243;50.888;4.724;2022-10-16T16:42:09;17.20;99.90
25302;DHT22;13243;50.888;4.724;2022-10-16T16:47:11;17.10;99.90
25302;DHT22;13243;50.888;4.724;2022-10-16T16:52:14;17.10;99.90
25302;DHT22;13243;50.888;4.724;2022-10-16T16:57:16;17.00;99.90
25302;DHT22;13243;50.888;4.724;2022-10-16T17:02:18;17.00;99.90
25302;DHT22;13243;50.888;4.724;2022-10-16T17:07:20;16.90;99.90
25302;DHT22;13243;50.888;4.724;2022-10-16T17:12:24;16.80;99.90
25302;DHT22;13243;50.888;4.724;2022-10-16T17:17:26;16.80;99.90
25302;DHT22;13243;50.888;4.724;2022-10-16T17:22:28;16.80;99.90
25302;DHT22;13243;50.888;4.724;2022-10-16T17:27:31;16.90;99.90
25302;DHT22;13243;50.888;4.724;2022-10-16T17:32:33;16.70;99.90
25302;DHT22;13243;50.888;4.724;2022-10-16T17:37:35;16.50;99.90
25302;DHT22;13243;50.888;4.724;2022-10-16T17:42:36;16.30;99.90
25302;DHT22;13243;50.888;4.724;2022-10-16T17:47:38;16.20;99.90
25302;DHT22;13243;50.888;4.724;2022-10-16T17:52:43;16.20;99.90
25302;DHT22;13243;50.888;4.724;2022-10-16T17:57:48;16.10;99.90
25302;DHT22;13243;50.888;4.724;2022-10-16T18:02:49;16.10;99.90
25302;DHT22;13243;50.888;4.724;2022-10-16T18:07:51;16.00;99.90
25302;DHT22;13243;50.888;4.724;2022-10-16T18:12:53;15.90;99.90
25302;DHT22;13243;50.888;4.724;2022-10-16T18:17:55;15.90;99.90
25302;DHT22;13243;50.888;4.724;2022-10-16T18:22:57;15.80;99.90
25302;DHT22;13243;50.888;4.724;2022-10-16T18:27:59;15.80;99.90
25302;DHT22;13243;50.888;4.724;2022-10-16T18:33:00;15.90;99.90
25302;DHT22;13243;50.888;4.724;2022-10-16T18:38:02;15.80;99.90
25302;DHT22;13243;50.888;4.724;2022-10-16T18:43:04;15.70;99.90
25302;DHT22;13243;50.888;4.724;2022-10-16T18:48:06;15.60;99.90
25302;DHT22;13243;50.888;4.724;2022-10-16T18:53:11;15.50;99.90
25302;DHT22;13243;50.888;4.724;2022-10-16T18:58:12;15.50;99.90
25302;DHT22;13243;50.888;4.724;2022-10-16T19:03:14;15.60;99.90
25302;DHT22;13243;50.888;4.724;2022-10-16T19:08:16;15.60;99.90
25302;DHT22;13243;50.888;4.724;2022-10-16T19:13:19;15.60;99.90
25302;DHT22;13243;50.888;4.724;2022-10-16T19:18:21;15.50;99.90
25302;DHT22;13243;50.888;4.724;2022-10-16T19:23:27;15.50;99.90
25302;DHT22;13243;50.888;4.724;2022-10-16T19:28:29;15.50;99.90
25302;DHT22;13243;50.888;4.724;2022-10-16T19:33:31;15.50;99.90
25302;DHT22;13243;50.888;4.724;2022-10-16T19:38:33;15.50;99.90
25302;DHT22;13243;50.888;4.724;2022-10-16T19:43:35;15.40;99.90
25302;DHT22;13243;50.888;4.724;2022-10-16T19:48:38;15.40;99.90
25302;DHT22;13243;50.888;4.724;2022-10-16T19:53:40;15.30;99.90
25302;DHT22;13243;50.888;4.724;2022-10-16T19:58:43;15.30;99.90
25302;DHT22;13243;50.888;4.724;2022-10-16T20:03:46;15.20;99.90
25302;DHT22;13243;50.888;4.724;2022-10-16T20:08:50;15.10;99.90
25302;DHT22;13243;50.888;4.724;2022-10-16T20:13:52;15.00;99.90
25302;DHT22;13243;50.888;4.724;2022-10-16T20:18:54;15.10;99.90
25302;DHT22;13243;50.888;4.724;2022-10-16T20:23:58;15.20;99.90
25302;DHT22;13243;50.888;4.724;2022-10-16T20:28:59;15.20;99.90
25302;DHT22;13243;50.888;4.724;2022-10-16T20:34:05;15.20;99.90
25302;DHT22;13243;50.888;4.724;2022-10-16T20:39:07;15.10;99.90
25302;DHT22;13243;50.888;4.724;2022-10-16T20:44:09;15.00;99.90
25302;DHT22;13243;50.888;4.724;2022-10-16T20:49:11;15.00;99.90
25302;DHT22;13243;50.888;4.724;2022-10-16T20:54:33;14.90;99.90
25302;DHT22;13243;50.888;4.724;2022-10-16T20:59:42;14.90;99.90
25302;DHT22;13243;50.888;4.724;2022-10-16T21:04:46;14.80;99.90
25302;DHT22;13243;50.888;4.724;2022-10-16T21:09:48;14.80;99.90
25302;DHT22;13243;50.888;4.724;2022-10-16T21:14:50;14.70;99.90
25302;DHT22;13243;50.888;4.724;2022-10-16T21:20:12;14.80;99.90
25302;DHT22;13243;50.888;4.724;2022-10-16T21:25:14;14.70;99.90
25302;DHT22;13243;50.888;4.724;2022-10-16T21:30:41;14.80;99.90
25302;DHT22;13243;50.888;4.724;2022-10-16T21:35:45;14.70;99.90
25302;DHT22;13243;50.888;4.724;2022-10-16T21:40:47;14.80;99.90
25302;DHT22;13243;50.888;4.724;2022-10-16T21:45:48;14.80;99.90
25302;DHT22;13243;50.888;4.724;2022-10-16T21:50:50;14.70;99.90
25302;DHT22;13243;50.888;4.724;2022-10-16T21:55:52;14.60;99.90
25302;DHT22;13243;50.888;4.724;2022-10-16T22:00:54;14.50;99.90
25302;DHT22;13243;50.888;4.724;2022-10-16T22:06:00;14.30;99.90
25302;DHT22;13243;50.888;4.724;2022-10-16T22:11:16;14.40;99.90
25302;DHT22;13243;50.888;4.724;2022-10-16T22:16:24;14.40;99.90
25302;DHT22;13243;50.888;4.724;2022-10-16T22:21:27;14.30;99.90
25302;DHT22;13243;50.888;4.724;2022-10-16T22:26:29;14.10;99.90
25302;DHT22;13243;50.888;4.724;2022-10-16T22:31:31;14.30;99.90
25302;DHT22;13243;50.888;4.724;2022-10-16T22:36:33;14.50;99.90
25302;DHT22;13243;50.888;4.724;2022-10-16T22:41:35;14.50;99.90
25302;DHT22;13243;50.888;4.724;2022-10-16T22:46:37;14.40;99.90
25302;DHT22;13243;50.888;4.724;2022-10-16T22:51:39;14.50;99.90
25302;DHT22;13243;50.888;4.724;2022-10-16T22:56:41;14.40;99.90
25302;DHT22;13243;50.888;4.724;2022-10-16T23:01:43;14.30;99.90
25302;DHT22;13243;50.888;4.724;2022-10-16T23:06:45;14.40;99.90
25302;DHT22;13243;50.888;4.724;2022-10-16T23:11:47;14.60;99.90
25302;DHT22;13243;50.888;4.724;2022-10-16T23:16:49;14.90;99.90
25302;DHT22;13243;50.888;4.724;2022-10-16T23:21:51;14.90;99.90
25302;DHT22;13243;50.888;4.724;2022-10-16T23:26:53;15.00;99.90
25302;DHT22;13243;50.888;4.724;2022-10-16T23:31:55;15.00;99.90
25302;DHT22;13243;50.888;4.724;2022-10-16T23:36:57;15.00;99.90
25302;DHT22;13243;50.888;4.724;2022-10-16T23:41:59;15.00;99.90
25302;DHT22;13243;50.888;4.724;2022-10-16T23:47:01;15.10;99.90
25302;DHT22;13243;50.888;4.724;2022-10-16T23:52:03;15.10;99.90
25302;DHT22;13243;50.888;4.724;2022-10-16T23:57:05;15.10;99.90
